Time;durP1;ratioP1;P1;durP2;ratioP2;P2;SDS_P1;SDS_P2;PMS_P1;PMS_P2;Temp;Humidity;BMP_temperature;BMP_pressure;BME280_temperature;BME280_humidity;BME280_pressure;Samples;Min_cycle;Max_cycle;Signal;HPM_P1;HPM_P2
2022/06/15 00:00:37;;;;;;;5.33;4.90;;;18.30;93.40;;;;;;6277951;28;20232;-67
2022/06/15 00:03:41;;;;;;;5.87;5.37;;;18.30;93.80;;;;;;6277585;28;20482;-67
2022/06/15 00:06:44;;;;;;;5.87;4.97;;;18.30;93.50;;;;;;6277052;28;20224;-66
2022/06/15 00:09:49;;;;;;;5.67;5.20;;;18.30;93.50;;;;;;6277945;28;20454;-66
2022/06/15 00:12:52;;;;;;;6.70;5.07;;;18.20;93.90;;;;;;6277415;28;20227;-66
2022/06/15 00:15:55;;;;;;;5.00;4.60;;;18.20;93.50;;;;;;6279636;28;20621;-66
2022/06/15 00:18:58;;;;;;;6.00;5.40;;;18.10;93.50;;;;;;6280293;28;20442;-66
2022/06/15 00:22:01;;;;;;;5.30;4.80;;;18.10;93.70;;;;;;6279413;28;20462;-66
2022/06/15 00:25:07;;;;;;;5.70;4.70;;;18.10;93.90;;;;;;6274710;28;20473;-66
2022/06/15 00:28:10;;;;;;;5.27;4.67;;;18.00;93.90;;;;;;6277179;28;20239;-65
2022/06/15 00:31:13;;;;;;;5.07;4.60;;;18.00;94.10;;;;;;6276805;28;20679;-65
2022/06/15 00:34:16;;;;;;;5.27;4.77;;;18.00;94.10;;;;;;6276669;28;20474;-65
2022/06/15 00:37:20;;;;;;;5.77;5.17;;;18.00;94.20;;;;;;6277210;28;20223;-65
2022/06/15 00:40:25;;;;;;;6.07;5.57;;;18.00;94.30;;;;;;6276737;28;20876;-65
2022/06/15 00:43:35;;;;;;;5.37;4.87;;;18.00;94.30;;;;;;6277222;28;20969;-65
2022/06/15 00:46:41;;;;;;;5.70;5.10;;;17.90;94.30;;;;;;6277178;28;20489;-66
2022/06/15 00:49:48;;;;;;;4.67;4.20;;;17.90;94.40;;;;;;6277250;28;20984;-66
2022/06/15 00:52:55;;;;;;;9.57;5.27;;;17.90;94.50;;;;;;6276957;28;20471;-66
2022/06/15 00:56:00;;;;;;;6.37;5.23;;;17.90;94.30;;;;;;6276990;28;20474;-66
2022/06/15 00:59:08;;;;;;;5.10;4.70;;;17.80;94.30;;;;;;6276807;28;20508;-66
2022/06/15 01:02:12;;;;;;;6.20;5.60;;;17.70;94.50;;;;;;6276916;28;20232;-66
2022/06/15 01:05:19;;;;;;;6.37;4.60;;;17.70;94.70;;;;;;6276595;28;20466;-66
2022/06/15 01:08:33;;;;;;;4.63;4.20;;;17.70;94.90;;;;;;6276653;28;20493;-66
2022/06/15 01:11:54;;;;;;;7.83;5.33;;;17.60;94.90;;;;;;6276164;28;20811;-66
2022/06/15 01:15:14;;;;;;;4.87;4.37;;;17.60;95.10;;;;;;6276178;28;20478;-66
2022/06/15 01:18:28;;;;;;;9.67;5.50;;;17.60;95.20;;;;;;6275405;28;20471;-66
2022/06/15 01:21:38;;;;;;;6.93;5.60;;;17.60;95.50;;;;;;6275934;28;21012;-66
2022/06/15 01:25:03;;;;;;;6.40;5.30;;;17.50;95.20;;;;;;6275988;28;20471;-66
2022/06/15 01:28:37;;;;;;;5.20;4.80;;;17.50;95.30;;;;;;6251188;28;20459;-66
2022/06/15 01:31:44;;;;;;;5.50;4.90;;;17.40;95.40;;;;;;6251210;28;20467;-66
2022/06/15 01:34:54;;;;;;;6.00;5.50;;;17.50;95.40;;;;;;6251310;28;20467;-67
2022/06/15 01:38:03;;;;;;;5.70;5.23;;;17.40;95.50;;;;;;6250983;28;20813;-66
2022/06/15 01:41:11;;;;;;;6.30;4.60;;;17.40;95.50;;;;;;6251198;28;20474;-66
2022/06/15 01:44:24;;;;;;;7.23;5.00;;;17.40;95.60;;;;;;6250505;28;20494;-66
2022/06/15 01:47:33;;;;;;;4.70;4.30;;;17.40;95.60;;;;;;6251080;28;20566;-66
2022/06/15 01:50:40;;;;;;;5.40;4.90;;;17.40;95.50;;;;;;6250804;28;20478;-66
2022/06/15 01:53:48;;;;;;;4.80;4.40;;;17.30;95.50;;;;;;6251077;28;20518;-66
2022/06/15 01:56:54;;;;;;;5.17;4.67;;;17.20;95.60;;;;;;6250720;28;20475;-66
2022/06/15 02:00:02;;;;;;;5.83;5.23;;;17.20;95.70;;;;;;6250937;28;20477;-67
2022/06/15 02:03:12;;;;;;;5.03;4.53;;;17.20;95.70;;;;;;6250463;28;20489;-66
2022/06/15 02:06:26;;;;;;;5.53;5.10;;;17.10;95.70;;;;;;6250651;28;20483;-66
2022/06/15 02:09:38;;;;;;;4.57;4.23;;;17.10;95.70;;;;;;6250404;28;20483;-66
2022/06/15 02:12:50;;;;;;;5.40;4.90;;;17.10;96.40;;;;;;6250143;28;20472;-66
2022/06/15 02:15:56;;;;;;;4.80;4.40;;;17.00;96.10;;;;;;6274822;28;20450;-66
2022/06/15 02:19:04;;;;;;;5.17;4.70;;;17.00;96.20;;;;;;6274882;28;20434;-66
2022/06/15 02:22:12;;;;;;;5.37;4.80;;;17.00;96.30;;;;;;6274897;28;20462;-66
2022/06/15 02:25:19;;;;;;;5.20;4.70;;;17.00;96.70;;;;;;6275130;28;20766;-66
2022/06/15 02:28:28;;;;;;;4.80;4.37;;;17.00;96.50;;;;;;6274380;28;20466;-67
2022/06/15 02:31:31;;;;;;;4.87;4.47;;;16.90;96.50;;;;;;6274936;28;20477;-66
2022/06/15 02:34:36;;;;;;;6.17;4.70;;;16.90;96.60;;;;;;6269603;28;20491;-66
2022/06/15 02:37:39;;;;;;;4.93;4.43;;;16.90;97.00;;;;;;6274765;28;20478;-66
2022/06/15 02:40:42;;;;;;;5.80;5.30;;;16.80;96.50;;;;;;6274620;28;20466;-67
2022/06/15 02:43:47;;;;;;;4.97;4.50;;;16.90;96.90;;;;;;6273936;28;20470;-66
2022/06/15 02:46:52;;;;;;;5.03;4.47;;;16.80;96.50;;;;;;6274618;28;20567;-66
2022/06/15 02:49:56;;;;;;;5.53;4.97;;;16.80;96.70;;;;;;6274646;28;20812;-66
2022/06/15 02:53:06;;;;;;;4.63;4.00;;;16.80;96.90;;;;;;6274439;28;20511;-66
2022/06/15 02:56:13;;;;;;;5.00;4.57;;;16.80;96.90;;;;;;6274666;28;20462;-65
2022/06/15 02:59:17;;;;;;;10.30;4.90;;;16.80;97.00;;;;;;6274489;28;20462;-65
2022/06/15 03:02:20;;;;;;;5.20;4.80;;;16.70;96.80;;;;;;6274458;28;20481;-65
2022/06/15 03:05:25;;;;;;;5.00;4.50;;;16.70;96.80;;;;;;6274556;28;20478;-65
2022/06/15 03:08:28;;;;;;;5.10;4.60;;;16.70;97.00;;;;;;6274441;28;20474;-65
2022/06/15 03:11:31;;;;;;;5.10;4.70;;;16.70;97.30;;;;;;6274730;28;20474;-65
2022/06/15 03:14:35;;;;;;;5.27;4.87;;;16.60;96.90;;;;;;6274016;28;20469;-65
2022/06/15 03:17:38;;;;;;;5.83;5.23;;;16.70;97.00;;;;;;6282170;28;20476;-65
2022/06/15 03:20:42;;;;;;;5.80;4.73;;;16.70;97.10;;;;;;6287138;28;20476;-65
2022/06/15 03:23:46;;;;;;;5.63;4.67;;;16.60;97.00;;;;;;6273840;28;20996;-65
2022/06/15 03:26:49;;;;;;;4.93;4.50;;;16.60;96.90;;;;;;6274051;28;20462;-64
2022/06/15 03:29:53;;;;;;;5.00;4.60;;;16.60;97.10;;;;;;6274234;28;20466;-65
2022/06/15 03:32:56;;;;;;;9.20;4.83;;;16.60;97.20;;;;;;6289370;28;20801;-65
2022/06/15 03:36:00;;;;;;;5.00;4.50;;;16.60;97.20;;;;;;6290790;28;20472;-65
2022/06/15 03:39:04;;;;;;;5.20;4.80;;;16.70;97.20;;;;;;6271419;28;20466;-65
2022/06/15 03:42:09;;;;;;;5.53;4.63;;;16.60;97.20;;;;;;6276746;28;20485;-65
2022/06/15 03:45:14;;;;;;;4.97;4.57;;;16.60;97.20;;;;;;6284119;28;20466;-65
2022/06/15 03:48:17;;;;;;;6.90;5.10;;;16.70;97.10;;;;;;6291878;28;20484;-66
2022/06/15 03:51:22;;;;;;;5.30;4.80;;;16.70;97.10;;;;;;6278474;28;20481;-66
2022/06/15 03:54:25;;;;;;;5.63;5.00;;;16.80;97.20;;;;;;6277646;28;20474;-66
2022/06/15 03:57:28;;;;;;;5.40;4.60;;;16.80;97.00;;;;;;6277953;28;20473;-65
2022/06/15 04:00:33;;;;;;;7.10;4.97;;;16.70;97.10;;;;;;6278293;28;20480;-65
2022/06/15 04:03:36;;;;;;;5.57;3.97;;;16.80;97.00;;;;;;6277706;28;20572;-65
2022/06/15 04:06:41;;;;;;;5.27;4.70;;;16.80;97.00;;;;;;6277522;28;20481;-66
2022/06/15 04:09:44;;;;;;;5.70;4.70;;;16.90;97.00;;;;;;6277528;28;20824;-67
2022/06/15 04:12:47;;;;;;;6.87;5.10;;;17.00;96.70;;;;;;6277045;28;20795;-67
2022/06/15 04:15:50;;;;;;;5.60;5.10;;;17.00;96.70;;;;;;6277217;28;20776;-67
2022/06/15 04:18:53;;;;;;;5.20;4.70;;;17.20;96.50;;;;;;6277325;28;20453;-67
2022/06/15 04:21:58;;;;;;;8.50;5.00;;;17.20;96.90;;;;;;6277499;28;20473;-67
2022/06/15 04:25:02;;;;;;;5.43;4.70;;;17.30;96.60;;;;;;6277392;28;20450;-67
2022/06/15 04:28:07;;;;;;;5.33;4.90;;;17.40;96.30;;;;;;6276836;28;20529;-67
2022/06/15 04:31:10;;;;;;;6.40;5.63;;;17.40;96.40;;;;;;6277262;28;20459;-67
2022/06/15 04:34:14;;;;;;;4.90;4.40;;;17.50;96.20;;;;;;6276423;28;20462;-67
2022/06/15 04:37:20;;;;;;;7.27;4.63;;;17.60;96.10;;;;;;6277507;28;20477;-67
2022/06/15 04:40:23;;;;;;;6.50;5.37;;;17.70;96.00;;;;;;6276849;28;20477;-67
2022/06/15 04:43:26;;;;;;;6.13;4.80;;;17.80;96.00;;;;;;6272874;28;20793;-67
2022/06/15 04:46:30;;;;;;;6.70;4.90;;;18.00;95.80;;;;;;6276780;28;20981;-67
2022/06/15 04:49:33;;;;;;;5.47;4.97;;;18.10;95.60;;;;;;6276935;28;20463;-67
2022/06/15 04:52:40;;;;;;;5.07;4.53;;;18.10;95.40;;;;;;6276550;28;20474;-67
2022/06/15 04:55:43;;;;;;;6.77;5.17;;;18.30;95.30;;;;;;6276542;28;20224;-67
2022/06/15 04:58:46;;;;;;;5.20;4.70;;;18.40;95.20;;;;;;6276476;28;20220;-66
2022/06/15 05:01:50;;;;;;;5.13;4.60;;;18.50;95.00;;;;;;6276609;28;20228;-66
2022/06/15 05:04:55;;;;;;;5.63;5.03;;;18.70;95.10;;;;;;6276560;28;20231;-66
2022/06/15 05:08:00;;;;;;;10.27;5.57;;;18.80;94.70;;;;;;6276296;28;20234;-67
2022/06/15 05:11:03;;;;;;;5.83;5.20;;;18.80;94.60;;;;;;6276440;28;20231;-67
2022/06/15 05:14:06;;;;;;;6.07;5.47;;;19.00;94.40;;;;;;6276238;28;20258;-67
2022/06/15 05:17:09;;;;;;;5.63;5.13;;;19.20;94.20;;;;;;6276420;28;20243;-67
2022/06/15 05:20:16;;;;;;;6.27;5.33;;;19.40;93.80;;;;;;6275940;28;20234;-67
2022/06/15 05:23:20;;;;;;;6.43;4.90;;;19.60;93.50;;;;;;6275907;28;20232;-67
2022/06/15 05:26:24;;;;;;;7.57;5.83;;;19.60;93.40;;;;;;6275702;28;20706;-67
2022/06/15 05:29:28;;;;;;;7.63;6.23;;;19.70;93.10;;;;;;6275745;28;20234;-67
2022/06/15 05:32:31;;;;;;;9.43;5.40;;;19.80;92.50;;;;;;6275502;28;20258;-66
2022/06/15 05:35:34;;;;;;;10.50;6.50;;;20.00;92.30;;;;;;6275813;28;20232;-67
2022/06/15 05:38:39;;;;;;;6.87;5.90;;;20.10;92.00;;;;;;6275876;28;20231;-67
2022/06/15 05:41:43;;;;;;;6.70;5.50;;;20.10;91.30;;;;;;6275543;28;20555;-65
2022/06/15 05:44:48;;;;;;;10.07;6.50;;;20.20;91.00;;;;;;6275682;28;20235;-66
2022/06/15 05:47:51;;;;;;;9.40;5.90;;;20.20;90.90;;;;;;6275585;28;20228;-66
2022/06/15 05:50:58;;;;;;;7.00;6.37;;;20.30;90.40;;;;;;6275512;28;20565;-67
2022/06/15 05:54:02;;;;;;;6.13;5.53;;;20.40;90.20;;;;;;6274941;28;20570;-67
2022/06/15 05:57:12;;;;;;;6.63;5.90;;;20.60;89.30;;;;;;6275181;28;20231;-67
2022/06/15 06:00:22;;;;;;;8.77;5.20;;;20.80;88.90;;;;;;6275120;28;20239;-67
2022/06/15 06:03:25;;;;;;;6.80;6.10;;;21.00;88.80;;;;;;6274421;28;20235;-66
2022/06/15 06:06:31;;;;;;;6.63;5.37;;;21.30;88.30;;;;;;6275223;28;20234;-67
2022/06/15 06:09:35;;;;;;;5.87;5.37;;;21.70;87.00;;;;;;6298132;28;20237;-67
2022/06/15 06:12:38;;;;;;;6.23;5.33;;;22.00;85.60;;;;;;6276046;28;20314;-68
2022/06/15 06:15:41;;;;;;;9.13;5.70;;;22.60;84.30;;;;;;6291833;28;20242;-67
2022/06/15 06:18:44;;;;;;;8.03;5.17;;;23.20;82.50;;;;;;6263099;28;20232;-67
2022/06/15 06:21:48;;;;;;;9.00;4.50;;;23.60;80.40;;;;;;6274958;28;20234;-68
2022/06/15 06:24:52;;;;;;;5.10;4.70;;;24.00;78.70;;;;;;6299287;28;20191;-68
2022/06/15 06:27:55;;;;;;;6.10;4.80;;;24.40;77.70;;;;;;6298252;28;20222;-67
2022/06/15 06:31:00;;;;;;;10.40;4.83;;;24.90;75.10;;;;;;6255541;28;20231;-67
2022/06/15 06:34:04;;;;;;;4.50;3.97;;;25.20;73.20;;;;;;6277919;28;20325;-67
2022/06/15 06:37:08;;;;;;;6.13;5.50;;;25.70;71.90;;;;;;6274500;28;20227;-67
2022/06/15 06:40:16;;;;;;;4.83;4.43;;;26.00;70.30;;;;;;6274899;28;20227;-67
2022/06/15 06:43:20;;;;;;;5.17;4.20;;;26.50;68.40;;;;;;6274599;28;20235;-68
2022/06/15 06:46:23;;;;;;;5.13;4.07;;;26.80;65.30;;;;;;6274379;28;20219;-67
2022/06/15 06:49:27;;;;;;;5.07;4.00;;;27.20;63.70;;;;;;6269677;28;20548;-69
2022/06/15 06:52:30;;;;;;;4.60;4.20;;;27.70;61.80;;;;;;6274474;28;20245;-68
2022/06/15 06:55:34;;;;;;;5.70;4.40;;;28.50;60.50;;;;;;6274389;28;20238;-68
2022/06/15 06:58:38;;;;;;;4.80;4.07;;;29.10;57.90;;;;;;6274551;28;20253;-68
2022/06/15 07:01:43;;;;;;;4.67;4.27;;;29.40;56.30;;;;;;6273751;28;20233;-68
2022/06/15 07:04:46;;;;;;;4.63;4.10;;;29.60;55.60;;;;;;6274461;28;20223;-67
2022/06/15 07:07:49;;;;;;;4.90;4.27;;;30.50;54.30;;;;;;6274328;28;20229;-68
2022/06/15 07:10:54;;;;;;;6.18;3.90;;;31.00;52.30;;;;;;6274347;28;20234;-68
2022/06/15 07:13:57;;;;;;;3.70;3.40;;;31.70;50.30;;;;;;6274146;28;20226;-69
2022/06/15 07:17:01;;;;;;;5.47;4.28;;;32.20;48.70;;;;;;6278251;28;20222;-69
2022/06/15 07:20:06;;;;;;;4.43;4.07;;;32.50;47.50;;;;;;6279483;28;20249;-68
2022/06/15 07:23:09;;;;;;;3.90;3.60;;;32.50;47.20;;;;;;6279197;28;20231;-68
2022/06/15 07:26:17;;;;;;;5.63;4.35;;;33.10;46.40;;;;;;6279243;28;20237;-69
2022/06/15 07:29:22;;;;;;;5.28;4.03;;;33.60;45.20;;;;;;6278966;28;20235;-68
2022/06/15 07:32:25;;;;;;;4.63;4.20;;;34.10;44.10;;;;;;6278616;28;20770;-68
2022/06/15 07:35:33;;;;;;;7.68;4.10;;;34.50;43.60;;;;;;6278817;28;20238;-68
2022/06/15 07:38:36;;;;;;;6.78;4.20;;;34.20;42.80;;;;;;6278988;28;20280;-68
2022/06/15 07:41:41;;;;;;;5.32;4.82;;;33.80;44.00;;;;;;6278233;28;20230;-68
2022/06/15 07:44:44;;;;;;;4.18;3.78;;;33.80;43.40;;;;;;6278424;28;20538;-68
2022/06/15 07:51:09;;;;;;;4.78;4.38;;;32.80;44.10;;;;;;6278619;28;20223;-68
2022/06/15 07:54:15;;;;;;;4.40;4.00;;;32.30;44.40;;;;;;6273260;28;20730;-67
2022/06/15 07:57:20;;;;;;;4.60;4.30;;;31.70;45.30;;;;;;6278569;28;20231;-68
2022/06/15 08:00:24;;;;;;;4.68;4.28;;;31.10;46.40;;;;;;6278272;28;20223;-68
2022/06/15 08:03:27;;;;;;;5.63;4.60;;;30.60;48.00;;;;;;6278028;28;20243;-68
2022/06/15 08:06:32;;;;;;;4.53;4.13;;;30.30;48.00;;;;;;6277814;28;20553;-68
2022/06/15 08:09:35;;;;;;;5.80;5.13;;;30.10;48.90;;;;;;6278104;28;20667;-68
2022/06/15 08:12:40;;;;;;;5.00;4.60;;;29.60;49.40;;;;;;6277716;28;20526;-68
2022/06/15 08:15:45;;;;;;;4.43;4.03;;;29.20;50.30;;;;;;6277683;28;20542;-67
2022/06/15 08:18:53;;;;;;;5.23;4.73;;;28.80;51.40;;;;;;6277399;28;20647;-68
2022/06/15 08:21:57;;;;;;;5.70;4.00;;;28.40;52.30;;;;;;6277726;28;20226;-67
2022/06/15 08:25:00;;;;;;;10.80;4.57;;;28.10;53.20;;;;;;6277468;28;20214;-68
2022/06/15 08:28:06;;;;;;;4.87;4.47;;;28.00;52.80;;;;;;6277203;28;20211;-68
2022/06/15 08:31:10;;;;;;;5.40;4.90;;;27.50;53.60;;;;;;6277858;28;20284;-67
2022/06/15 08:34:13;;;;;;;5.23;4.73;;;27.60;53.70;;;;;;6277116;28;20655;-68
2022/06/15 08:37:19;;;;;;;5.10;4.60;;;27.70;53.70;;;;;;6277568;28;20240;-68
2022/06/15 08:40:22;;;;;;;5.73;4.57;;;27.80;53.80;;;;;;6277819;28;20219;-67
2022/06/15 08:43:37;;;;;;;4.70;4.30;;;27.40;54.10;;;;;;6277164;28;20231;-68
2022/06/15 08:46:48;;;;;;;4.70;4.30;;;27.40;54.70;;;;;;6277198;28;20306;-68
2022/06/15 08:50:02;;;;;;;7.83;4.47;;;26.40;56.40;;;;;;6277278;28;20687;-68
2022/06/15 08:53:15;;;;;;;9.23;5.47;;;26.40;56.30;;;;;;6276440;28;20668;-68
2022/06/15 08:56:25;;;;;;;7.70;5.70;;;26.60;56.70;;;;;;6277017;28;20246;-68
2022/06/15 08:59:38;;;;;;;5.90;5.40;;;26.80;56.70;;;;;;6277096;28;20233;-68
2022/06/15 09:02:50;;;;;;;5.60;4.80;;;27.00;56.80;;;;;;6277010;28;20232;-67
2022/06/15 09:06:05;;;;;;;7.33;5.40;;;27.00;56.40;;;;;;6276836;28;20675;-68
2022/06/15 09:09:24;;;;;;;6.13;5.17;;;27.10;55.90;;;;;;6276908;28;20284;-71
2022/06/15 09:12:55;;;;;;;5.37;4.97;;;26.90;56.90;;;;;;6276682;28;20231;-68
2022/06/15 09:16:08;;;;;;;7.20;5.50;;;26.80;57.50;;;;;;6276422;28;20211;-68
2022/06/15 09:19:15;;;;;;;6.10;4.80;;;26.90;56.90;;;;;;6274611;28;20329;-69
2022/06/15 09:22:22;;;;;;;5.67;5.17;;;26.70;56.10;;;;;;6285515;28;20218;-68
2022/06/15 09:25:31;;;;;;;5.10;4.70;;;26.60;57.20;;;;;;6293997;28;20667;-67
2022/06/15 09:28:40;;;;;;;6.13;4.70;;;26.60;58.00;;;;;;6283052;28;20305;-68
2022/06/15 09:31:50;;;;;;;6.23;5.60;;;26.70;57.70;;;;;;6288144;28;20674;-68
2022/06/15 09:35:01;;;;;;;6.30;5.80;;;26.70;58.10;;;;;;6291251;28;20266;-68
2022/06/15 09:38:09;;;;;;;5.47;4.97;;;26.50;58.30;;;;;;6274702;28;20238;-68
2022/06/15 09:41:20;;;;;;;6.17;5.57;;;26.60;59.00;;;;;;6287184;28;20223;-68
2022/06/15 09:44:34;;;;;;;8.73;5.77;;;26.70;57.90;;;;;;6286860;28;20246;-68
2022/06/15 09:47:55;;;;;;;6.03;5.43;;;26.60;58.30;;;;;;6274711;28;20219;-67
2022/06/15 09:51:05;;;;;;;6.00;5.47;;;26.80;58.40;;;;;;6258648;28;20677;-68
2022/06/15 09:54:20;;;;;;;5.87;5.27;;;26.80;58.30;;;;;;6301653;28;20237;-68
2022/06/15 09:57:24;;;;;;;5.97;5.50;;;26.90;58.60;;;;;;6294958;28;20226;-67
2022/06/15 10:00:27;;;;;;;4.80;4.50;;;26.60;59.00;;;;;;6277892;28;20682;-67
2022/06/15 10:03:36;;;;;;;5.40;5.00;;;26.80;59.10;;;;;;6260816;28;20667;-67
2022/06/15 10:06:46;;;;;;;5.80;4.80;;;26.90;58.20;;;;;;6274778;28;20242;-67
2022/06/15 10:09:53;;;;;;;6.00;4.73;;;27.10;58.30;;;;;;6299228;28;20222;-68
2022/06/15 10:12:59;;;;;;;5.60;5.10;;;26.90;58.30;;;;;;6274946;28;20230;-66
2022/06/15 10:16:06;;;;;;;5.67;5.17;;;27.00;58.30;;;;;;6276894;28;20597;-67
2022/06/15 10:19:13;;;;;;;9.53;5.60;;;27.00;57.70;;;;;;6299638;28;20550;-67
2022/06/15 10:22:25;;;;;;;5.70;5.20;;;27.10;58.10;;;;;;6300159;28;20230;-67
2022/06/15 10:25:33;;;;;;;4.80;4.40;;;27.10;58.20;;;;;;6300101;28;20230;-67
2022/06/15 10:28:39;;;;;;;7.63;5.67;;;27.10;58.30;;;;;;6300285;28;20232;-66
2022/06/15 10:31:56;;;;;;;6.07;5.57;;;27.40;58.60;;;;;;6300193;28;20234;-67
2022/06/15 10:35:17;;;;;;;6.70;6.10;;;27.20;58.40;;;;;;6300346;28;20245;-67
2022/06/15 10:38:21;;;;;;;6.63;5.43;;;27.20;58.20;;;;;;6300044;28;20222;-67
2022/06/15 10:41:49;;;;;;;5.80;5.20;;;27.40;58.60;;;;;;6299414;28;20562;-67
2022/06/15 10:44:55;;;;;;;6.37;5.87;;;27.60;58.10;;;;;;6283391;28;20228;-66
2022/06/15 10:48:03;;;;;;;7.27;5.30;;;27.70;58.70;;;;;;6299192;28;20234;-67
2022/06/15 10:51:11;;;;;;;6.43;4.87;;;27.90;57.70;;;;;;6278399;28;20227;-67
2022/06/15 10:54:21;;;;;;;5.60;5.10;;;27.90;57.70;;;;;;6281197;28;20231;-67
2022/06/15 11:04:19;;;;;;;6.00;5.43;;;27.80;58.40;;;;;;6294944;28;20237;-66
2022/06/15 11:07:32;;;;;;;7.23;6.53;;;27.80;59.10;;;;;;6303467;28;20534;-66
2022/06/15 11:10:38;;;;;;;10.53;5.70;;;28.00;59.00;;;;;;6304017;28;20556;-67
2022/06/15 11:13:43;;;;;;;7.60;5.77;;;28.00;58.60;;;;;;6302941;28;20222;-67
2022/06/15 11:20:19;;;;;;;6.37;5.60;;;27.70;60.00;;;;;;6278731;28;20556;-65
2022/06/15 11:23:30;;;;;;;6.50;5.90;;;27.80;58.90;;;;;;6300477;28;20241;-66
2022/06/15 11:26:55;;;;;;;6.30;5.30;;;28.00;58.70;;;;;;6286263;28;20231;-66
2022/06/15 11:30:02;;;;;;;5.80;5.33;;;28.30;58.30;;;;;;6300753;28;20263;-66
2022/06/15 11:33:12;;;;;;;5.60;5.20;;;28.30;58.70;;;;;;6302989;28;20230;-66
2022/06/15 11:36:25;;;;;;;5.80;5.37;;;28.30;57.60;;;;;;6303570;28;20226;-66
2022/06/15 11:39:35;;;;;;;6.83;6.13;;;28.40;57.60;;;;;;6303326;28;20689;-66
2022/06/15 11:42:38;;;;;;;5.53;5.03;;;28.50;58.20;;;;;;6303171;28;20677;-66
2022/06/15 11:46:03;;;;;;;6.27;5.77;;;28.60;58.70;;;;;;6302986;28;20236;-66
2022/06/15 11:49:17;;;;;;;7.33;6.10;;;28.30;58.40;;;;;;6302856;28;20226;-66
2022/06/15 11:52:42;;;;;;;5.77;5.30;;;27.90;59.00;;;;;;6303051;28;20245;-66
2022/06/15 11:55:52;;;;;;;8.50;6.47;;;28.20;59.00;;;;;;6291446;28;20221;-66
2022/06/15 11:59:05;;;;;;;8.23;5.97;;;28.10;58.80;;;;;;6278528;28;20237;-66
2022/06/15 12:02:39;;;;;;;6.27;5.63;;;27.90;59.80;;;;;;6277742;28;20238;-67
2022/06/15 12:05:47;;;;;;;5.93;5.43;;;28.10;59.90;;;;;;6279163;28;20313;-67
2022/06/15 12:09:01;;;;;;;6.40;5.90;;;28.30;59.10;;;;;;6269545;28;20381;-67
2022/06/15 12:15:39;;;;;;;6.33;5.73;;;28.70;59.40;;;;;;6277582;28;20234;-66
2022/06/15 12:18:57;;;;;;;6.03;5.47;;;28.60;59.60;;;;;;6278182;28;20241;-66
2022/06/15 12:22:06;;;;;;;6.80;6.20;;;28.50;59.80;;;;;;6277225;28;20228;-64
2022/06/15 12:25:19;;;;;;;7.10;6.50;;;28.50;59.30;;;;;;6277514;28;20243;-64
2022/06/15 12:28:32;;;;;;;7.00;6.40;;;28.00;61.00;;;;;;6291417;28;20226;-64
2022/06/15 12:31:47;;;;;;;7.17;6.47;;;28.00;60.80;;;;;;6277263;28;20571;-65
2022/06/15 12:35:00;;;;;;;7.17;6.57;;;28.10;60.70;;;;;;6227961;28;20695;-64
2022/06/15 12:38:12;;;;;;;7.30;6.50;;;28.00;61.60;;;;;;6227496;28;20567;-64
2022/06/15 12:44:43;;;;;;;7.23;6.70;;;28.10;61.00;;;;;;6226951;28;20613;-63
2022/06/15 12:47:53;;;;;;;8.17;7.37;;;28.10;61.40;;;;;;6227256;28;20232;-64
2022/06/15 12:51:04;;;;;;;7.50;6.70;;;28.20;60.90;;;;;;6227327;28;20259;-64
2022/06/15 12:54:15;;;;;;;7.93;6.80;;;28.20;61.60;;;;;;6231561;28;20232;-63
2022/06/15 12:57:27;;;;;;;7.53;6.83;;;28.30;60.00;;;;;;6226202;28;20239;-63
2022/06/15 13:00:38;;;;;;;6.40;6.00;;;28.40;59.70;;;;;;6227257;28;20238;-63
2022/06/15 13:03:52;;;;;;;6.27;5.63;;;28.50;59.30;;;;;;6226712;28;20235;-63
2022/06/15 13:07:22;;;;;;;7.03;6.43;;;28.60;60.30;;;;;;6227160;28;20193;-62
2022/06/15 13:10:27;;;;;;;7.80;7.00;;;28.50;61.10;;;;;;6223026;28;20653;-63
2022/06/15 13:13:33;;;;;;;7.17;6.43;;;28.40;61.00;;;;;;6226004;28;20247;-64
2022/06/15 13:16:40;;;;;;;8.77;7.00;;;28.40;60.90;;;;;;6227518;28;20235;-63
2022/06/15 13:19:46;;;;;;;7.27;6.60;;;28.40;60.20;;;;;;6227008;28;20229;-63
2022/06/15 13:22:49;;;;;;;8.03;6.80;;;28.50;60.70;;;;;;6226919;28;20224;-63
2022/06/15 13:25:56;;;;;;;7.93;6.20;;;28.60;60.50;;;;;;6226714;28;20228;-64
2022/06/15 13:29:25;;;;;;;7.40;6.80;;;28.40;60.10;;;;;;6239149;28;20223;-63
2022/06/15 13:32:59;;;;;;;6.43;5.93;;;28.50;59.80;;;;;;6227377;28;20639;-63
2022/06/15 13:36:22;;;;;;;6.83;6.23;;;28.30;61.30;;;;;;6269362;28;20322;-63
2022/06/15 13:39:47;;;;;;;6.20;5.70;;;27.80;62.20;;;;;;6276922;28;20231;-63
2022/06/15 13:43:02;;;;;;;6.77;6.23;;;27.80;62.60;;;;;;6275480;28;20223;-62
2022/06/15 13:46:23;;;;;;;7.20;6.50;;;27.80;61.90;;;;;;6275295;28;20238;-63
2022/06/15 13:49:40;;;;;;;8.03;7.27;;;27.80;62.10;;;;;;6288134;28;20223;-63
2022/06/15 13:52:46;;;;;;;7.53;6.80;;;27.80;61.70;;;;;;6300564;28;20229;-65
2022/06/15 13:56:00;;;;;;;7.60;7.00;;;27.90;61.10;;;;;;6299206;28;20222;-65
2022/06/15 13:59:13;;;;;;;7.27;6.60;;;28.00;61.70;;;;;;6299812;28;20226;-64
2022/06/15 14:02:36;;;;;;;10.60;6.30;;;27.80;61.80;;;;;;6299933;28;20227;-63
2022/06/15 14:05:59;;;;;;;6.60;6.10;;;27.30;63.10;;;;;;6300229;28;20246;-63
2022/06/15 14:09:27;;;;;;;6.50;6.00;;;27.00;64.90;;;;;;6299892;28;20690;-65
2022/06/15 14:12:49;;;;;;;6.23;5.73;;;27.20;64.50;;;;;;6299950;28;20245;-64
2022/06/15 14:16:09;;;;;;;7.97;6.43;;;27.40;63.50;;;;;;6283037;28;20214;-64
2022/06/15 14:19:21;;;;;;;6.70;6.10;;;27.40;63.90;;;;;;6275131;28;20229;-65
2022/06/15 14:22:25;;;;;;;7.00;5.57;;;27.70;64.20;;;;;;6274711;28;20227;-64
2022/06/15 14:25:36;;;;;;;7.70;5.83;;;27.90;62.30;;;;;;6274701;28;20237;-64
2022/06/15 14:28:40;;;;;;;6.13;5.63;;;28.00;62.50;;;;;;6274660;28;20567;-64
2022/06/15 14:31:46;;;;;;;6.47;5.93;;;28.10;62.40;;;;;;6272780;28;20245;-65
2022/06/15 14:34:49;;;;;;;6.50;6.10;;;28.30;61.30;;;;;;6274838;28;20246;-66
2022/06/15 14:37:59;;;;;;;6.93;6.30;;;27.90;61.90;;;;;;6274574;28;20231;-64
2022/06/15 14:41:17;;;;;;;6.67;5.90;;;27.60;62.50;;;;;;6274834;28;20238;-65
2022/06/15 14:44:22;;;;;;;6.20;5.67;;;27.60;62.90;;;;;;6274715;28;20667;-64
2022/06/15 14:47:28;;;;;;;7.03;6.37;;;27.80;63.40;;;;;;6275155;28;20219;-65
2022/06/15 14:50:33;;;;;;;6.27;5.87;;;28.00;62.90;;;;;;6288265;28;20241;-64
2022/06/15 14:53:42;;;;;;;6.00;5.50;;;28.10;62.30;;;;;;6297862;28;20226;-64
2022/06/15 14:56:57;;;;;;;7.03;6.43;;;28.10;61.40;;;;;;6274315;28;20671;-64
2022/06/15 15:00:03;;;;;;;7.97;5.70;;;28.20;61.60;;;;;;6274723;28;20223;-64
2022/06/15 15:03:07;;;;;;;7.90;6.03;;;28.10;61.30;;;;;;6274529;28;20306;-64
2022/06/15 15:06:14;;;;;;;6.17;5.57;;;28.00;62.10;;;;;;6274721;28;20571;-64
2022/06/15 15:09:20;;;;;;;6.13;5.60;;;28.10;62.90;;;;;;6274101;28;20242;-65
2022/06/15 15:12:24;;;;;;;6.33;5.23;;;28.00;61.70;;;;;;6274479;28;20237;-64
2022/06/15 15:15:27;;;;;;;5.90;5.27;;;28.10;61.60;;;;;;6274817;28;20242;-64
2022/06/15 15:18:46;;;;;;;5.13;4.73;;;28.00;61.10;;;;;;6274884;28;20238;-64
2022/06/15 15:22:00;;;;;;;6.03;5.53;;;27.90;61.20;;;;;;6265558;28;20230;-63
2022/06/15 15:25:08;;;;;;;6.00;5.50;;;27.80;61.40;;;;;;6276494;28;20208;-64
2022/06/15 15:35:12;;;;;;;5.97;5.47;;;28.10;60.20;;;;;;6299284;28;20363;-67
2022/06/15 15:38:24;;;;;;;5.27;4.87;;;28.10;59.70;;;;;;6303086;28;20234;-66
2022/06/15 15:41:29;;;;;;;6.93;5.73;;;28.00;59.30;;;;;;6306062;28;20309;-66
2022/06/15 15:44:33;;;;;;;5.00;4.60;;;27.90;59.80;;;;;;6305075;28;20233;-66
2022/06/15 15:47:36;;;;;;;5.07;4.67;;;27.90;59.70;;;;;;6302791;28;20305;-66
2022/06/15 15:50:40;;;;;;;4.90;4.60;;;28.00;59.50;;;;;;6303020;28;20237;-67
2022/06/15 15:53:43;;;;;;;6.27;5.63;;;28.10;59.20;;;;;;6302811;28;20238;-65
2022/06/15 15:56:48;;;;;;;5.50;5.10;;;28.10;58.70;;;;;;6302802;28;20239;-66
2022/06/15 15:59:53;;;;;;;5.60;5.00;;;28.10;58.70;;;;;;6302885;28;20254;-67
2022/06/15 16:02:59;;;;;;;7.70;5.47;;;28.00;58.80;;;;;;6304119;28;20249;-66
2022/06/15 16:06:02;;;;;;;4.80;4.50;;;28.20;58.70;;;;;;6306547;28;20230;-66
2022/06/15 16:09:07;;;;;;;6.20;4.93;;;28.20;59.20;;;;;;6305458;28;20318;-66
2022/06/15 16:12:12;;;;;;;6.00;5.47;;;28.10;58.80;;;;;;6303928;28;20226;-65
2022/06/15 16:15:18;;;;;;;5.70;5.27;;;27.90;59.10;;;;;;6303243;28;20231;-67
2022/06/15 16:18:23;;;;;;;5.80;5.33;;;27.90;58.80;;;;;;6303327;28;20226;-65
2022/06/15 16:21:27;;;;;;;5.53;5.10;;;27.90;58.90;;;;;;6303216;28;20226;-64
2022/06/15 16:24:33;;;;;;;5.77;4.70;;;27.80;59.00;;;;;;6297595;28;20237;-66
2022/06/15 16:27:39;;;;;;;6.50;5.90;;;27.60;59.50;;;;;;6302118;28;20234;-65
2022/06/15 16:30:43;;;;;;;5.40;4.90;;;27.30;60.10;;;;;;6295927;28;20226;-66
2022/06/15 16:33:46;;;;;;;5.90;5.40;;;27.30;60.10;;;;;;6298741;28;20548;-65
2022/06/15 16:36:49;;;;;;;6.70;5.30;;;27.10;60.50;;;;;;6301950;28;20321;-65
2022/06/15 16:39:52;;;;;;;5.67;5.17;;;26.80;61.30;;;;;;6301501;28;20226;-66
2022/06/15 16:42:58;;;;;;;5.60;5.20;;;26.90;61.70;;;;;;6301460;28;20313;-64